Time;durP1;ratioP1;P1;durP2;ratioP2;P2;SDS_P1;SDS_P2;PMS_P1;PMS_P2;Temp;Humidity;BMP_temperature;BMP_pressure;BME280_temperature;BME280_humidity;BME280_pressure;Samples;Min_cycle;Max_cycle;Signal;HPM_P1;HPM_P2
2023/07/13 00:00:25;;;;;;;;;;;21.90;99.90;;;;;;2585312;54;20818;31
2023/07/13 00:03:01;;;;;;;;;;;21.80;99.90;;;;;;2604452;46;20797;31
2023/07/13 00:05:36;;;;;;;;;;;21.80;99.90;;;;;;2585704;54;19938;31
2023/07/13 00:08:11;;;;;;;;;;;21.80;99.90;;;;;;2585570;54;19934;31
2023/07/13 00:10:48;;;;;;;;;;;21.80;99.90;;;;;;2585242;54;20883;31
2023/07/13 00:13:26;;;;;;;;;;;21.80;99.90;;;;;;2604216;46;21806;31
2023/07/13 00:16:03;;;;;;;;;;;21.80;99.90;;;;;;2604043;46;19941;31
2023/07/13 00:18:38;;;;;;;;;;;21.80;99.90;;;;;;2596902;46;19941;31
2023/07/13 00:21:13;;;;;;;;;;;21.70;99.90;;;;;;2682878;39;21037;31
2023/07/13 00:23:49;;;;;;;;;;;21.70;99.90;;;;;;2682452;39;20550;31
2023/07/13 00:26:24;;;;;;;;;;;21.70;99.90;;;;;;2603644;46;20696;31
2023/07/13 00:28:58;;;;;;;;;;;21.70;99.90;;;;;;2585304;54;21851;31
2023/07/13 00:31:35;;;;;;;;;;;21.60;99.90;;;;;;2585817;54;19941;31
2023/07/13 00:34:11;;;;;;;;;;;21.60;99.90;;;;;;2604268;46;21775;31
2023/07/13 00:36:46;;;;;;;;;;;21.60;99.90;;;;;;2584649;54;19997;31
2023/07/13 00:39:21;;;;;;;;;;;21.60;99.90;;;;;;2683417;39;20417;31
2023/07/13 00:41:57;;;;;;;;;;;21.50;99.90;;;;;;2585586;54;20750;31
2023/07/13 00:44:30;;;;;;;;;;;21.40;99.90;;;;;;2585825;54;20864;31
2023/07/13 00:47:08;;;;;;;;;;;21.40;99.90;;;;;;2585375;54;20756;31
2023/07/13 00:49:42;;;;;;;;;;;21.40;99.90;;;;;;2702073;39;22350;31
2023/07/13 00:52:17;;;;;;;;;;;21.40;99.90;;;;;;2603848;46;19941;31
2023/07/13 00:54:54;;;;;;;;;;;21.40;99.90;;;;;;2585411;54;19938;31
2023/07/13 00:57:28;;;;;;;;;;;21.30;99.90;;;;;;2585437;54;19977;31
2023/07/13 01:00:09;;;;;;;;;;;21.20;99.90;;;;;;2585311;54;20813;31
2023/07/13 01:02:47;;;;;;;;;;;21.20;99.90;;;;;;2585388;54;19942;31
2023/07/13 01:05:22;;;;;;;;;;;21.10;99.90;;;;;;2604020;47;20771;31
2023/07/13 01:07:58;;;;;;;;;;;21.00;99.90;;;;;;2585462;54;19950;31
2023/07/13 01:10:38;;;;;;;;;;;20.90;99.90;;;;;;2585177;54;22396;31
2023/07/13 01:13:13;;;;;;;;;;;20.90;99.90;;;;;;2585470;54;19934;31
2023/07/13 01:15:49;;;;;;;;;;;20.90;99.90;;;;;;2603718;47;20891;31
2023/07/13 01:18:27;;;;;;;;;;;20.90;99.90;;;;;;2585481;54;19984;31
2023/07/13 01:21:04;;;;;;;;;;;20.90;99.90;;;;;;2604189;47;19935;31
2023/07/13 01:23:38;;;;;;;;;;;20.90;99.90;;;;;;2585464;54;19954;31
2023/07/13 01:26:14;;;;;;;;;;;20.80;99.90;;;;;;2585472;54;20030;31
2023/07/13 01:28:50;;;;;;;;;;;20.80;99.90;;;;;;2585186;54;20894;31
2023/07/13 01:31:23;;;;;;;;;;;20.70;99.90;;;;;;2683132;39;22355;31
2023/07/13 01:33:58;;;;;;;;;;;20.70;99.90;;;;;;2585413;54;20889;31
2023/07/13 01:36:35;;;;;;;;;;;20.60;99.90;;;;;;2585354;54;20835;31
2023/07/13 01:39:08;;;;;;;;;;;20.60;99.90;;;;;;2603824;47;20775;31
2023/07/13 01:41:42;;;;;;;;;;;20.60;99.90;;;;;;2603556;47;19941;31
2023/07/13 01:44:17;;;;;;;;;;;20.60;99.90;;;;;;2585258;54;19957;31
2023/07/13 01:46:52;;;;;;;;;;;20.50;99.90;;;;;;2604011;47;19953;31
2023/07/13 01:49:27;;;;;;;;;;;20.50;99.90;;;;;;2584891;54;19960;31
2023/07/13 01:52:05;;;;;;;;;;;20.40;99.90;;;;;;2585237;54;19935;31
2023/07/13 01:54:38;;;;;;;;;;;20.40;99.90;;;;;;2701734;39;22303;31
2023/07/13 01:57:15;;;;;;;;;;;20.40;99.90;;;;;;2584895;54;20775;31
2023/07/13 01:59:53;;;;;;;;;;;20.40;99.90;;;;;;2701543;39;20417;31
2023/07/13 02:02:28;;;;;;;;;;;20.40;99.90;;;;;;2585344;54;19954;31
2023/07/13 02:05:03;;;;;;;;;;;19.80;99.90;;;;;;2603828;47;19956;31
2023/07/13 02:07:41;;;;;;;;;;;20.30;99.90;;;;;;2603657;47;19997;31
2023/07/13 02:10:18;;;;;;;;;;;20.30;99.90;;;;;;2585036;54;20711;31
2023/07/13 02:12:51;;;;;;;;;;;20.30;99.90;;;;;;2585372;54;20846;31
2023/07/13 02:15:26;;;;;;;;;;;20.20;99.90;;;;;;2603974;47;20836;31
2023/07/13 02:17:59;;;;;;;;;;;20.20;99.90;;;;;;2585915;54;20755;31
2023/07/13 02:20:34;;;;;;;;;;;20.10;99.90;;;;;;2585938;54;19935;31
2023/07/13 02:23:11;;;;;;;;;;;20.10;99.90;;;;;;2684063;39;22475;31
2023/07/13 02:25:44;;;;;;;;;;;20.00;99.90;;;;;;2603999;46;19939;31
2023/07/13 02:28:18;;;;;;;;;;;20.00;99.90;;;;;;2586236;54;22425;31
2023/07/13 02:30:57;;;;;;;;;;;19.90;99.90;;;;;;2585965;54;19935;31
2023/07/13 02:33:33;;;;;;;;;;;19.90;99.90;;;;;;2604275;46;19985;31
2023/07/13 02:36:07;;;;;;;;;;;18.80;99.90;;;;;;2604872;46;22297;31
2023/07/13 02:38:44;;;;;;;;;;;19.90;99.90;;;;;;2586046;54;20017;31
2023/07/13 02:41:22;;;;;;;;;;;19.90;99.90;;;;;;2586017;54;20793;31
2023/07/13 02:44:03;;;;;;;;;;;19.90;99.90;;;;;;2586093;54;19961;31
2023/07/13 02:46:40;;;;;;;;;;;19.90;99.90;;;;;;2586222;54;22371;31
2023/07/13 02:49:16;;;;;;;;;;;19.80;99.90;;;;;;2585967;54;19961;31
2023/07/13 02:51:51;;;;;;;;;;;19.90;99.90;;;;;;2585227;54;20698;31
2023/07/13 02:54:29;;;;;;;;;;;19.80;99.90;;;;;;2585067;54;20921;31
2023/07/13 02:57:02;;;;;;;;;;;19.80;99.90;;;;;;2585870;54;20788;31
2023/07/13 02:59:40;;;;;;;;;;;19.80;99.90;;;;;;2601529;46;19950;31
2023/07/13 03:02:15;;;;;;;;;;;19.80;99.90;;;;;;2585804;54;19938;31
2023/07/13 03:04:53;;;;;;;;;;;19.80;99.90;;;;;;2585960;54;20863;31
2023/07/13 03:07:30;;;;;;;;;;;19.80;99.90;;;;;;2683724;39;21294;31
2023/07/13 03:10:07;;;;;;;;;;;19.70;99.90;;;;;;2585622;54;20819;31
2023/07/13 03:12:51;;;;;;;;;;;19.70;99.90;;;;;;2773503;31;21113;31
2023/07/13 03:15:32;;;;;;;;;;;19.70;99.90;;;;;;2586078;54;19981;31
2023/07/13 03:18:08;;;;;;;;;;;19.70;99.90;;;;;;2585916;54;19934;31
2023/07/13 03:20:46;;;;;;;;;;;19.60;99.90;;;;;;2586039;54;20797;31
2023/07/13 03:23:20;;;;;;;;;;;19.70;99.90;;;;;;2585798;54;20833;31
2023/07/13 03:25:57;;;;;;;;;;;19.70;99.90;;;;;;2604228;46;19961;31
2023/07/13 03:28:36;;;;;;;;;;;19.80;99.90;;;;;;2682989;39;21002;31
2023/07/13 03:31:16;;;;;;;;;;;19.80;99.90;;;;;;2584791;54;20867;31
2023/07/13 03:33:53;;;;;;;;;;;19.80;99.90;;;;;;2585801;54;20797;31
2023/07/13 03:36:27;;;;;;;;;;;19.80;99.90;;;;;;2585929;54;20860;31
2023/07/13 03:39:08;;;;;;;;;;;19.90;99.90;;;;;;2683565;39;21214;31
2023/07/13 03:41:51;;;;;;;;;;;19.90;99.90;;;;;;2585727;54;20899;31
2023/07/13 03:44:25;;;;;;;;;;;20.00;99.90;;;;;;2604393;46;20392;31
2023/07/13 03:47:02;;;;;;;;;;;20.00;99.90;;;;;;2585650;54;20820;31
2023/07/13 03:49:41;;;;;;;;;;;20.00;99.90;;;;;;2604442;46;19934;31
2023/07/13 03:52:15;;;;;;;;;;;20.00;99.90;;;;;;2683667;39;21112;31
2023/07/13 03:54:50;;;;;;;;;;;20.00;99.90;;;;;;2584896;54;19994;31
2023/07/13 03:57:29;;;;;;;;;;;20.00;99.90;;;;;;2604249;46;20818;31
2023/07/13 04:00:05;;;;;;;;;;;20.00;99.90;;;;;;2584720;54;20448;31
2023/07/13 04:02:49;;;;;;;;;;;20.00;99.90;;;;;;2604179;46;19941;31
2023/07/13 04:05:27;;;;;;;;;;;20.10;99.90;;;;;;2585649;54;20859;31
2023/07/13 04:07:58;;;;;;;;;;;20.10;99.90;;;;;;2604481;46;20819;31
2023/07/13 04:10:33;;;;;;;;;;;20.10;99.90;;;;;;2584961;54;20056;31
2023/07/13 04:13:07;;;;;;;;;;;18.70;99.90;;;;;;2584727;54;20728;31
2023/07/13 04:15:42;;;;;;;;;;;20.10;99.90;;;;;;2683811;39;22235;31
2023/07/13 04:18:19;;;;;;;;;;;20.10;99.90;;;;;;2585790;54;19934;31
2023/07/13 04:21:00;;;;;;;;;;;20.00;99.90;;;;;;2585117;54;20690;31
2023/07/13 04:23:34;;;;;;;;;;;20.00;99.90;;;;;;2604365;46;20813;31
2023/07/13 04:26:07;;;;;;;;;;;19.90;99.90;;;;;;2683720;39;20945;31
2023/07/13 04:28:42;;;;;;;;;;;19.80;99.90;;;;;;2585629;54;20668;31
2023/07/13 04:31:15;;;;;;;;;;;19.70;99.90;;;;;;2683792;39;22355;31
2023/07/13 04:33:50;;;;;;;;;;;19.60;99.90;;;;;;2683852;39;22283;31
2023/07/13 04:36:29;;;;;;;;;;;19.50;99.90;;;;;;2585393;54;19934;31
2023/07/13 04:39:06;;;;;;;;;;;19.30;99.90;;;;;;2603668;46;19935;31
2023/07/13 04:41:41;;;;;;;;;;;19.10;99.90;;;;;;2585635;54;20455;31
2023/07/13 04:44:15;;;;;;;;;;;18.90;99.90;;;;;;2585518;54;20824;31
2023/07/13 04:46:52;;;;;;;;;;;18.70;99.90;;;;;;2585914;54;20688;31
2023/07/13 04:49:26;;;;;;;;;;;18.60;99.90;;;;;;2585372;54;21194;31
2023/07/13 04:52:10;;;;;;;;;;;18.30;99.90;;;;;;2604071;46;20912;31
2023/07/13 04:54:44;;;;;;;;;;;18.20;99.90;;;;;;2683644;39;20946;31
2023/07/13 04:57:17;;;;;;;;;;;18.10;99.90;;;;;;2584853;54;19942;31
2023/07/13 04:59:55;;;;;;;;;;;18.00;99.90;;;;;;2585625;54;20812;31
2023/07/13 05:02:31;;;;;;;;;;;17.90;99.90;;;;;;2585405;54;19956;31
2023/07/13 05:05:08;;;;;;;;;;;17.90;99.90;;;;;;2604061;46;20878;31
2023/07/13 05:07:44;;;;;;;;;;;17.90;99.90;;;;;;2594757;46;21150;31
2023/07/13 05:10:23;;;;;;;;;;;17.80;99.90;;;;;;2591374;47;19934;31
2023/07/13 05:13:01;;;;;;;;;;;17.70;99.90;;;;;;2603163;47;20906;31
2023/07/13 05:15:34;;;;;;;;;;;17.70;99.90;;;;;;2597378;47;21782;31
2023/07/13 05:18:08;;;;;;;;;;;17.60;99.90;;;;;;2603982;47;21078;31
2023/07/13 05:20:41;;;;;;;;;;;17.50;99.90;;;;;;2585197;54;19948;31
2023/07/13 05:23:18;;;;;;;;;;;17.50;99.90;;;;;;2585528;54;19938;31
2023/07/13 05:25:55;;;;;;;;;;;17.50;99.90;;;;;;2604150;47;20668;31
2023/07/13 05:28:28;;;;;;;;;;;17.50;99.90;;;;;;2585281;54;20829;31
2023/07/13 05:31:02;;;;;;;;;;;17.60;99.90;;;;;;2585614;54;20840;31
2023/07/13 05:33:36;;;;;;;;;;;17.60;99.90;;;;;;2600590;47;20863;31
2023/07/13 05:36:11;;;;;;;;;;;17.60;99.90;;;;;;2585270;54;20001;31
2023/07/13 05:38:48;;;;;;;;;;;17.60;99.90;;;;;;2604108;47;20815;31
2023/07/13 05:41:27;;;;;;;;;;;17.60;99.90;;;;;;2683561;39;22209;31
2023/07/13 05:44:05;;;;;;;;;;;17.60;99.90;;;;;;2585427;54;19954;31
2023/07/13 05:46:43;;;;;;;;;;;17.60;99.90;;;;;;2604149;47;21068;31
2023/07/13 05:49:22;;;;;;;;;;;17.60;99.90;;;;;;2683612;39;22129;31
2023/07/13 05:51:56;;;;;;;;;;;17.60;99.90;;;;;;2585925;54;21277;31
2023/07/13 05:54:30;;;;;;;;;;;17.60;99.90;;;;;;2586086;54;19938;31
2023/07/13 05:57:05;;;;;;;;;;;17.60;99.90;;;;;;2604667;46;19934;31
2023/07/13 05:59:43;;;;;;;;;;;17.70;99.90;;;;;;2602291;46;20694;31
2023/07/13 06:02:20;;;;;;;;;;;17.70;99.90;;;;;;2585438;54;20849;31
2023/07/13 06:04:55;;;;;;;;;;;17.80;99.90;;;;;;2602412;46;19946;31
2023/07/13 06:07:31;;;;;;;;;;;17.90;99.90;;;;;;2585182;54;19942;31
2023/07/13 06:10:07;;;;;;;;;;;17.90;99.90;;;;;;2585017;54;20809;31
2023/07/13 06:12:43;;;;;;;;;;;17.90;99.90;;;;;;2599155;46;20028;31
2023/07/13 06:15:22;;;;;;;;;;;18.00;99.90;;;;;;2585396;54;20866;31
2023/07/13 06:17:56;;;;;;;;;;;18.10;99.90;;;;;;2585924;54;20866;31
2023/07/13 06:20:33;;;;;;;;;;;18.10;99.90;;;;;;2604375;46;19981;31
2023/07/13 06:23:09;;;;;;;;;;;17.50;99.90;;;;;;2585688;54;19934;31
2023/07/13 06:25:43;;;;;;;;;;;18.40;99.90;;;;;;2586073;54;19938;31
2023/07/13 06:28:16;;;;;;;;;;;18.40;99.90;;;;;;2603108;46;20021;31
2023/07/13 06:30:58;;;;;;;;;;;18.60;99.90;;;;;;2585669;54;20693;31
2023/07/13 06:33:33;;;;;;;;;;;18.80;99.90;;;;;;2604633;46;19941;31
2023/07/13 06:36:12;;;;;;;;;;;18.80;99.90;;;;;;2585965;54;19934;31
2023/07/13 06:38:49;;;;;;;;;;;18.90;99.90;;;;;;2586410;54;20844;31
2023/07/13 06:41:26;;;;;;;;;;;19.00;99.90;;;;;;2586183;54;21221;31
2023/07/13 06:44:04;;;;;;;;;;;19.10;99.90;;;;;;2585644;54;20828;31
2023/07/13 06:46:41;;;;;;;;;;;19.10;99.90;;;;;;2598041;46;21068;31
2023/07/13 06:49:15;;;;;;;;;;;19.10;99.90;;;;;;2585863;54;20815;31
2023/07/13 06:51:50;;;;;;;;;;;19.20;99.90;;;;;;2585901;54;19989;31
2023/07/13 06:54:25;;;;;;;;;;;19.10;99.90;;;;;;2585161;54;20020;31
2023/07/13 06:56:59;;;;;;;;;;;19.10;99.90;;;;;;2604586;46;20008;31
2023/07/13 06:59:35;;;;;;;;;;;19.10;99.90;;;;;;2603212;46;20850;31
2023/07/13 07:02:17;;;;;;;;;;;19.00;99.90;;;;;;2604286;46;20016;31
2023/07/13 07:04:51;;;;;;;;;;;19.00;99.90;;;;;;2585759;54;20889;31
2023/07/13 07:07:27;;;;;;;;;;;18.90;99.90;;;;;;2604536;46;20844;31
2023/07/13 07:10:01;;;;;;;;;;;18.90;99.90;;;;;;2604497;46;20838;31
2023/07/13 07:12:35;;;;;;;;;;;18.90;99.90;;;;;;2586085;54;20085;31
2023/07/13 07:15:13;;;;;;;;;;;18.90;99.90;;;;;;2585956;54;21912;31
2023/07/13 07:17:52;;;;;;;;;;;18.80;99.90;;;;;;2585664;54;20049;31
2023/07/13 07:20:37;;;;;;;;;;;18.80;99.90;;;;;;2604465;46;19940;31
2023/07/13 07:23:20;;;;;;;;;;;18.80;99.90;;;;;;2586011;54;19954;31
2023/07/13 07:25:58;;;;;;;;;;;18.80;99.90;;;;;;2585947;54;20949;31
2023/07/13 07:31:41;;;;;;;;;;;18.60;99.90;;;;;;2585678;54;19958;31
2023/07/13 07:34:27;;;;;;;;;;;18.70;99.90;;;;;;2682535;39;21394;31
2023/07/13 07:37:25;;;;;;;;;;;18.70;99.90;;;;;;2585609;54;20810;31
2023/07/13 07:40:37;;;;;;;;;;;18.70;99.90;;;;;;2585994;54;19997;31
2023/07/13 07:43:15;;;;;;;;;;;18.80;99.90;;;;;;2592852;46;21936;31
2023/07/13 07:45:58;;;;;;;;;;;18.70;99.90;;;;;;2586079;54;19941;31
2023/07/13 07:48:50;;;;;;;;;;;18.70;99.90;;;;;;2586045;54;20831;31
2023/07/13 07:51:28;;;;;;;;;;;18.60;99.90;;;;;;2585696;54;20841;31
2023/07/13 07:54:08;;;;;;;;;;;18.60;99.90;;;;;;2585559;54;19934;31
2023/07/13 08:00:08;;;;;;;;;;;18.80;99.90;;;;;;2585809;54;21843;31
2023/07/13 08:02:58;;;;;;;;;;;18.70;99.90;;;;;;2585587;54;19942;31
2023/07/13 08:06:02;;;;;;;;;;;18.80;99.90;;;;;;2604180;46;20042;31
2023/07/13 08:08:50;;;;;;;;;;;18.90;99.90;;;;;;2604175;46;20805;31
2023/07/13 08:11:26;;;;;;;;;;;19.00;99.90;;;;;;2585544;54;19942;31
2023/07/13 08:14:18;;;;;;;;;;;19.20;99.90;;;;;;2585075;54;19934;31
2023/07/13 08:16:54;;;;;;;;;;;19.40;99.90;;;;;;2585758;54;20797;31
2023/07/13 08:19:31;;;;;;;;;;;19.70;99.90;;;;;;2585941;54;21101;31
2023/07/13 08:22:18;;;;;;;;;;;19.90;99.90;;;;;;2584708;54;20736;31
2023/07/13 08:25:10;;;;;;;;;;;20.20;99.90;;;;;;2585825;54;19938;31
2023/07/13 08:27:53;;;;;;;;;;;20.30;99.90;;;;;;2586101;54;21011;31
2023/07/13 08:30:33;;;;;;;;;;;20.40;99.90;;;;;;2585565;54;19988;31
2023/07/13 08:33:10;;;;;;;;;;;20.50;99.90;;;;;;2585722;54;19960;31
2023/07/13 08:35:48;;;;;;;;;;;20.70;99.90;;;;;;2585554;54;19993;31
2023/07/13 08:38:28;;;;;;;;;;;20.70;99.90;;;;;;2585462;54;19934;31
2023/07/13 08:43:46;;;;;;;;;;;20.80;99.90;;;;;;2585842;54;19957;31
2023/07/13 08:46:27;;;;;;;;;;;20.90;99.90;;;;;;2603737;46;19934;31
2023/07/13 08:49:06;;;;;;;;;;;20.90;99.90;;;;;;2585577;54;19961;31
2023/07/13 08:51:44;;;;;;;;;;;20.90;99.90;;;;;;2585743;54;21773;31
2023/07/13 08:54:23;;;;;;;;;;;20.90;99.90;;;;;;2604198;46;19942;31
2023/07/13 08:57:04;;;;;;;;;;;21.70;99.90;;;;;;2585538;54;19957;31
2023/07/13 08:59:45;;;;;;;;;;;21.10;99.90;;;;;;2585305;54;19935;31
2023/07/13 09:02:25;;;;;;;;;;;18.80;99.90;;;;;;2604022;46;19993;31
2023/07/13 09:05:03;;;;;;;;;;;21.30;99.90;;;;;;2604391;46;21711;31
2023/07/13 09:07:43;;;;;;;;;;;21.50;99.90;;;;;;2585172;54;19934;31
2023/07/13 09:13:28;;;;;;;;;;;22.00;99.90;;;;;;2603898;47;21078;31
2023/07/13 09:16:07;;;;;;;;;;;22.20;99.90;;;;;;2608651;39;21117;31
2023/07/13 09:18:40;;;;;;;;;;;22.40;99.90;;;;;;2583450;54;19948;31
2023/07/13 09:21:16;;;;;;;;;;;22.60;99.90;;;;;;2589498;39;20145;31
2023/07/13 09:23:53;;;;;;;;;;;22.80;99.90;;;;;;2596129;47;20833;31
2023/07/13 09:26:28;;;;;;;;;;;22.90;99.90;;;;;;2583771;54;20815;31
2023/07/13 09:29:06;;;;;;;;;;;23.00;99.90;;;;;;2603019;46;20005;31
2023/07/13 09:31:44;;;;;;;;;;;23.20;99.90;;;;;;2586702;54;19940;31
2023/07/13 09:34:18;;;;;;;;;;;23.30;99.90;;;;;;2586940;54;19941;31
2023/07/13 09:36:51;;;;;;;;;;;23.50;99.90;;;;;;2586541;54;19961;31
2023/07/13 09:39:26;;;;;;;;;;;23.60;99.90;;;;;;2586155;54;19942;31
2023/07/13 09:41:58;;;;;;;;;;;24.30;99.90;;;;;;2586673;54;19942;31
2023/07/13 09:44:36;;;;;;;;;;;23.90;99.90;;;;;;2605304;46;20674;31
2023/07/13 09:47:19;;;;;;;;;;;22.30;99.90;;;;;;2585894;54;20020;31
2023/07/13 09:49:52;;;;;;;;;;;24.20;99.90;;;;;;2586680;54;20742;31
2023/07/13 09:52:23;;;;;;;;;;;24.30;99.90;;;;;;2586504;54;20016;31
2023/07/13 09:54:58;;;;;;;;;;;24.30;99.90;;;;;;2586342;54;19941;31
2023/07/13 09:57:35;;;;;;;;;;;25.30;99.90;;;;;;2586789;54;19941;31
2023/07/13 10:00:29;;;;;;;;;;;24.80;99.90;;;;;;2604877;46;19957;31
2023/07/13 10:03:03;;;;;;;;;;;25.00;99.90;;;;;;2593104;46;19950;31
2023/07/13 10:05:41;;;;;;;;;;;25.40;99.90;;;;;;2604423;46;19937;31
2023/07/13 10:08:24;;;;;;;;;;;25.60;99.90;;;;;;2604864;46;19946;31
2023/07/13 10:10:57;;;;;;;;;;;25.90;99.90;;;;;;2604945;46;20752;31
2023/07/13 10:13:38;;;;;;;;;;;26.10;99.90;;;;;;2586498;54;19942;31
2023/07/13 10:16:16;;;;;;;;;;;26.60;99.90;;;;;;2586586;54;19946;31
2023/07/13 10:18:49;;;;;;;;;;;26.40;99.90;;;;;;2586892;54;20761;31
2023/07/13 10:21:22;;;;;;;;;;;26.40;99.90;;;;;;2604986;46;22277;31
2023/07/13 10:24:03;;;;;;;;;;;26.20;99.90;;;;;;2605010;46;20780;31
2023/07/13 10:26:39;;;;;;;;;;;26.00;99.90;;;;;;2586519;54;20749;31
2023/07/13 10:29:13;;;;;;;;;;;24.70;99.90;;;;;;2586761;54;19935;31
2023/07/13 10:31:53;;;;;;;;;;;25.60;99.90;;;;;;2586834;54;20827;31
2023/07/13 10:34:28;;;;;;;;;;;25.50;99.90;;;;;;2604834;46;20709;31
2023/07/13 10:37:04;;;;;;;;;;;25.50;99.90;;;;;;2586364;54;20723;31
2023/07/13 10:39:39;;;;;;;;;;;25.60;99.90;;;;;;2684416;39;22243;31
2023/07/13 10:42:13;;;;;;;;;;;25.40;99.90;;;;;;2586263;54;20020;31
2023/07/13 10:44:47;;;;;;;;;;;25.40;99.90;;;;;;2586514;54;20727;31
2023/07/13 10:47:25;;;;;;;;;;;25.50;99.90;;;;;;2586110;54;19935;31
2023/07/13 10:50:01;;;;;;;;;;;25.40;99.90;;;;;;2605027;46;20825;31
2023/07/13 10:52:39;;;;;;;;;;;25.50;99.90;;;;;;2585620;54;19946;31
2023/07/13 10:55:27;;;;;;;;;;;25.60;99.90;;;;;;2601530;46;20633;31
2023/07/13 10:57:59;;;;;;;;;;;25.60;99.90;;;;;;2605036;46;20020;31
2023/07/13 11:00:32;;;;;;;;;;;25.80;99.90;;;;;;2604936;46;19989;31
2023/07/13 11:03:14;;;;;;;;;;;25.80;99.90;;;;;;2604981;46;20649;31
2023/07/13 11:05:59;;;;;;;;;;;25.90;99.90;;;;;;2604559;46;20805;31
2023/07/13 11:08:37;;;;;;;;;;;26.60;99.90;;;;;;2586901;46;22383;31
2023/07/13 11:11:24;;;;;;;;;;;26.00;99.90;;;;;;2586531;54;20748;31
2023/07/13 11:14:04;;;;;;;;;;;25.90;99.90;;;;;;2586525;54;19938;31
2023/07/13 11:16:40;;;;;;;;;;;25.90;99.90;;;;;;2604633;46;20751;31
2023/07/13 11:19:31;;;;;;;;;;;25.90;99.90;;;;;;2586007;54;19934;31
2023/07/13 11:22:14;;;;;;;;;;;25.80;99.90;;;;;;2586082;54;19942;31
2023/07/13 11:24:51;;;;;;;;;;;25.80;99.90;;;;;;2586535;54;19935;31
2023/07/13 11:27:30;;;;;;;;;;;25.70;99.90;;;;;;2604763;46;19934;31
2023/07/13 11:30:11;;;;;;;;;;;25.60;99.90;;;;;;2586028;54;19942;31
2023/07/13 11:32:53;;;;;;;;;;;25.60;99.90;;;;;;2586025;54;20761;31
2023/07/13 11:35:30;;;;;;;;;;;25.60;99.90;;;;;;2604895;46;19935;31
2023/07/13 11:38:07;;;;;;;;;;;25.50;99.90;;;;;;2604558;46;20804;31
2023/07/13 11:40:44;;;;;;;;;;;25.40;99.90;;;;;;2586196;54;19934;31
2023/07/13 11:43:25;;;;;;;;;;;25.50;99.90;;;;;;2586090;54;20746;31
2023/07/13 11:46:02;;;;;;;;;;;25.60;99.90;;;;;;2586455;54;20656;31
2023/07/13 11:48:39;;;;;;;;;;;25.70;99.90;;;;;;2585914;54;19939;31
2023/07/13 11:51:22;;;;;;;;;;;25.70;99.90;;;;;;2604735;46;20665;31
2023/07/13 11:54:01;;;;;;;;;;;25.80;99.90;;;;;;2683544;39;22142;31
2023/07/13 11:56:38;;;;;;;;;;;25.70;99.90;;;;;;2585348;54;19943;31
2023/07/13 11:59:13;;;;;;;;;;;25.60;99.90;;;;;;2599997;46;19950;31
2023/07/13 12:04:38;;;;;;;;;;;25.50;99.90;;;;;;2586208;54;19934;31
2023/07/13 12:09:56;;;;;;;;;;;25.50;99.90;;;;;;2586347;54;19935;31
2023/07/13 12:12:34;;;;;;;;;;;25.30;99.90;;;;;;2586277;54;19935;31
2023/07/13 12:15:23;;;;;;;;;;;25.30;99.90;;;;;;2586230;54;19935;31
2023/07/13 12:17:56;;;;;;;;;;;25.60;99.90;;;;;;2586329;54;19934;31
2023/07/13 12:20:31;;;;;;;;;;;25.30;99.90;;;;;;2604545;46;20648;31
2023/07/13 12:23:07;;;;;;;;;;;25.40;99.90;;;;;;2586200;54;19994;31
2023/07/13 12:25:46;;;;;;;;;;;25.50;99.90;;;;;;2586514;54;19934;31
2023/07/13 12:28:36;;;;;;;;;;;25.60;99.90;;;;;;2586244;54;19935;31
2023/07/13 12:31:10;;;;;;;;;;;25.80;99.90;;;;;;2604609;46;19934;31
2023/07/13 12:33:50;;;;;;;;;;;25.80;99.90;;;;;;2604058;46;20893;31
2023/07/13 12:36:26;;;;;;;;;;;26.00;99.90;;;;;;2586028;54;19935;31
2023/07/13 12:39:03;;;;;;;;;;;26.50;99.90;;;;;;2585857;54;20753;31
2023/07/13 12:41:38;;;;;;;;;;;26.70;99.90;;;;;;2586071;54;19939;31
2023/07/13 12:44:25;;;;;;;;;;;26.30;99.90;;;;;;2604140;46;19934;31
2023/07/13 12:47:01;;;;;;;;;;;26.40;99.90;;;;;;2586022;54;20792;31
2023/07/13 12:49:43;;;;;;;;;;;26.40;99.90;;;;;;2604267;46;19934;31
2023/07/13 12:52:25;;;;;;;;;;;26.70;99.90;;;;;;2585760;54;20842;31
2023/07/13 12:55:14;;;;;;;;;;;26.80;99.90;;;;;;2585579;54;20739;31
2023/07/13 12:57:59;;;;;;;;;;;26.90;99.90;;;;;;2585911;54;20659;31
2023/07/13 13:00:38;;;;;;;;;;;26.90;99.90;;;;;;2585696;54;20083;31
2023/07/13 13:03:27;;;;;;;;;;;26.90;99.90;;;;;;2604310;46;19961;31
2023/07/13 13:06:05;;;;;;;;;;;26.90;99.90;;;;;;2603822;46;19943;31
2023/07/13 13:08:49;;;;;;;;;;;27.00;99.90;;;;;;2585695;54;19935;31
2023/07/13 13:11:29;;;;;;;;;;;27.00;99.90;;;;;;2585135;54;19942;31
2023/07/13 13:14:16;;;;;;;;;;;27.00;99.90;;;;;;2586334;54;19934;31
2023/07/13 13:16:54;;;;;;;;;;;27.00;99.90;;;;;;2603913;47;20080;31
2023/07/13 13:22:32;;;;;;;;;;;27.00;99.90;;;;;;2683861;39;22193;31
2023/07/13 13:25:20;;;;;;;;;;;27.00;99.90;;;;;;2604311;47;19941;31
2023/07/13 13:27:57;;;;;;;;;;;27.00;99.90;;;;;;2604099;47;19960;31
2023/07/13 13:33:42;;;;;;;;;;;27.30;99.90;;;;;;2754073;31;22288;31
2023/07/13 13:39:01;;;;;;;;;;;27.10;99.90;;;;;;2702029;39;21540;31
2023/07/13 13:44:28;;;;;;;;;;;27.10;99.90;;;;;;2585868;54;20804;31
2023/07/13 13:47:03;;;;;;;;;;;27.10;99.90;;;;;;2604231;47;20881;31
2023/07/13 13:49:51;;;;;;;;;;;27.10;99.90;;;;;;2585568;54;19942;31
2023/07/13 13:52:29;;;;;;;;;;;27.10;99.90;;;;;;2585774;54;20403;31
2023/07/13 13:55:16;;;;;;;;;;;27.00;99.90;;;;;;2585032;54;19934;31
2023/07/13 13:57:54;;;;;;;;;;;26.60;99.90;;;;;;2603384;47;20727;31
2023/07/13 14:00:31;;;;;;;;;;;27.00;99.90;;;;;;2603928;47;19958;31
2023/07/13 14:03:18;;;;;;;;;;;27.00;99.90;;;;;;2603937;47;19960;31
2023/07/13 14:05:53;;;;;;;;;;;27.00;99.90;;;;;;2585870;54;20864;31
2023/07/13 14:08:30;;;;;;;;;;;27.10;99.90;;;;;;2585500;54;20730;31
2023/07/13 14:11:18;;;;;;;;;;;27.10;99.90;;;;;;2604025;47;20020;31
2023/07/13 14:13:52;;;;;;;;;;;27.10;99.90;;;;;;2604613;46;20792;31
2023/07/13 14:19:18;;;;;;;;;;;27.20;99.90;;;;;;2604989;46;19957;31
2023/07/13 14:22:01;;;;;;;;;;;27.20;99.90;;;;;;2593956;46;19952;31
2023/07/13 14:24:38;;;;;;;;;;;27.20;99.90;;;;;;2604537;46;20748;31
2023/07/13 14:27:20;;;;;;;;;;;27.20;99.90;;;;;;2585744;54;20803;31
2023/07/13 14:32:53;;;;;;;;;;;27.00;99.90;;;;;;2586118;54;20784;31
2023/07/13 14:38:11;;;;;;;;;;;26.90;99.90;;;;;;2586606;54;22319;31
2023/07/13 14:40:50;;;;;;;;;;;26.90;99.90;;;;;;2586283;54;20815;31
2023/07/13 14:43:31;;;;;;;;;;;26.80;99.90;;;;;;2604624;46;19938;31
2023/07/13 14:46:05;;;;;;;;;;;26.80;99.90;;;;;;2585614;54;22302;31
2023/07/13 14:48:44;;;;;;;;;;;26.70;99.90;;;;;;2585386;54;19949;31
2023/07/13 14:51:23;;;;;;;;;;;26.70;99.90;;;;;;2599691;46;20837;31
2023/07/13 14:53:58;;;;;;;;;;;26.70;99.90;;;;;;2585134;54;20807;31
2023/07/13 14:56:34;;;;;;;;;;;26.70;99.90;;;;;;2585406;54;19992;31
2023/07/13 14:59:12;;;;;;;;;;;26.70;99.90;;;;;;2585633;54;19943;31
2023/07/13 15:01:46;;;;;;;;;;;26.60;99.90;;;;;;2604708;46;20736;31
2023/07/13 15:04:18;;;;;;;;;;;26.60;99.90;;;;;;2604687;46;19942;31
2023/07/13 15:06:59;;;;;;;;;;;26.50;99.90;;;;;;2586035;54;19942;31
